createdAt,value
2018-05-15T00:01:32.254Z,12.16
2018-05-15T00:04:00.708Z,12.10
2018-05-15T00:06:29.135Z,12.04
2018-05-15T00:08:57.690Z,12.11
2018-05-15T00:11:26.152Z,12.16
2018-05-15T00:13:54.606Z,12.21
2018-05-15T00:16:23.036Z,12.34
2018-05-15T00:18:51.501Z,12.46
2018-05-15T00:21:20.683Z,12.47
2018-05-15T00:23:49.129Z,12.53
2018-05-15T00:26:17.536Z,12.59
2018-05-15T00:28:46.003Z,12.68
2018-05-15T00:31:14.434Z,12.69
2018-05-15T00:33:43.655Z,12.77
2018-05-15T00:36:12.080Z,12.78
2018-05-15T00:38:40.559Z,12.84
2018-05-15T00:41:08.986Z,12.90
2018-05-15T00:43:38.219Z,12.98
2018-05-15T00:46:06.660Z,12.95
2018-05-15T00:48:35.141Z,12.98
2018-05-15T00:51:03.559Z,13.04
2018-05-15T00:53:31.986Z,13.12
2018-05-15T00:56:00.468Z,13.14
2018-05-15T00:58:28.974Z,13.10
2018-05-15T01:00:57.453Z,13.16
2018-05-15T01:03:25.896Z,13.13
2018-05-15T01:05:54.362Z,13.18
2018-05-15T01:08:22.784Z,13.19
2018-05-15T01:10:51.260Z,13.25
2018-05-15T01:13:19.687Z,13.23
2018-05-15T01:15:49.004Z,13.27
2018-05-15T01:18:18.243Z,13.24
2018-05-15T01:20:46.704Z,13.21
2018-05-15T01:23:15.903Z,13.21
2018-05-15T01:25:45.135Z,13.24
2018-05-15T01:28:13.589Z,13.29
2018-05-15T01:30:42.812Z,13.34
2018-05-15T01:33:11.236Z,13.28
2018-05-15T01:35:39.674Z,13.28
2018-05-15T01:38:08.144Z,13.25
2018-05-15T01:40:37.334Z,13.28
2018-05-15T01:43:05.795Z,13.25
2018-05-15T01:45:34.223Z,13.27
2018-05-15T01:48:03.450Z,13.28
2018-05-15T01:50:32.406Z,13.27
2018-05-15T01:53:01.650Z,13.33
2018-05-15T01:55:30.087Z,13.34
2018-05-15T01:57:58.538Z,13.30
2018-05-15T02:00:26.970Z,13.37
2018-05-15T02:02:56.175Z,13.39
2018-05-15T02:05:25.395Z,13.39
2018-05-15T02:07:53.936Z,13.34
2018-05-15T02:10:23.269Z,13.27
2018-05-15T02:12:52.464Z,13.24
2018-05-15T02:15:21.684Z,13.16
2018-05-15T02:17:50.101Z,13.09
2018-05-15T02:20:18.575Z,13.07
2018-05-15T02:22:47.003Z,13.04
2018-05-15T02:25:15.451Z,12.94
2018-05-15T02:27:43.884Z,12.91
2018-05-15T02:30:12.364Z,12.82
2018-05-15T02:32:41.571Z,12.74
2018-05-15T02:35:10.777Z,12.74
2018-05-15T02:37:40.006Z,12.68
2018-05-15T02:40:08.439Z,12.58
2018-05-15T02:42:36.903Z,12.50
2018-05-15T02:45:05.354Z,12.49
2018-05-15T02:47:33.833Z,12.42
2018-05-15T02:50:02.364Z,12.46
2018-05-15T02:52:30.900Z,12.44
2018-05-15T02:55:00.185Z,12.42
2018-05-15T02:57:29.438Z,12.39
2018-05-15T02:59:57.880Z,12.25
2018-05-15T03:02:27.227Z,12.23
2018-05-15T03:04:55.660Z,12.15
2018-05-15T03:07:24.247Z,12.07
2018-05-15T03:09:52.767Z,12.03
2018-05-15T03:12:21.334Z,12.03
2018-05-15T03:14:50.590Z,12.07
2018-05-15T03:17:19.104Z,12.11
2018-05-15T03:19:47.570Z,12.03
2018-05-15T03:22:16.032Z,11.99
2018-05-15T03:24:44.475Z,12.02
2018-05-15T03:27:13.677Z,11.93
2018-05-15T03:29:42.895Z,11.89
2018-05-15T03:32:12.093Z,11.85
2018-05-15T03:34:41.312Z,11.81
2018-05-15T03:37:09.740Z,11.75
2018-05-15T03:39:38.185Z,11.71
2018-05-15T03:42:06.614Z,11.67
2018-05-15T03:44:35.102Z,11.64
2018-05-15T03:47:03.534Z,11.62
2018-05-15T03:49:31.964Z,11.60
2018-05-15T03:52:00.423Z,11.55
2018-05-15T03:54:28.832Z,11.54
2018-05-15T03:56:57.294Z,11.53
2018-05-15T03:59:25.724Z,11.48
2018-05-15T04:02:11.992Z,11.45
2018-05-15T04:04:58.155Z,11.45
2018-05-15T04:07:44.521Z,11.42
2018-05-15T04:10:12.939Z,11.41
2018-05-15T04:12:41.926Z,11.35
2018-05-15T04:15:10.351Z,11.35
2018-05-15T04:17:38.801Z,11.34
2018-05-15T04:20:07.331Z,11.33
2018-05-15T04:22:36.630Z,11.33
2018-05-15T04:25:05.918Z,11.27
2018-05-15T04:27:34.519Z,11.26
2018-05-15T04:30:03.083Z,11.24
2018-05-15T04:32:31.628Z,11.25
2018-05-15T04:35:00.065Z,11.29
2018-05-15T04:37:28.547Z,11.35
2018-05-15T04:39:57.031Z,11.39
2018-05-15T04:42:25.504Z,11.43
2018-05-15T04:44:53.922Z,11.45
2018-05-15T04:47:22.480Z,11.49
2018-05-15T04:49:50.900Z,11.54
2018-05-15T04:52:19.470Z,11.59
2018-05-15T04:54:47.935Z,11.66
2018-05-15T04:57:16.364Z,11.71
2018-05-15T04:59:45.591Z,11.80
2018-05-15T05:02:14.033Z,11.85
2018-05-15T05:04:42.493Z,11.94
2018-05-15T05:07:10.916Z,12.02
2018-05-15T05:09:40.192Z,12.06
2018-05-15T05:12:08.638Z,12.21
2018-05-15T05:14:37.095Z,12.27
2018-05-15T05:17:06.273Z,12.38
2018-05-15T05:19:34.730Z,12.37
2018-05-15T05:22:03.160Z,12.47
2018-05-15T05:24:31.636Z,12.55
2018-05-15T05:27:00.048Z,12.58
2018-05-15T05:29:28.534Z,12.64
2018-05-15T05:31:56.957Z,12.71
2018-05-15T05:34:25.399Z,12.79
2018-05-15T05:36:54.601Z,12.88
2018-05-15T05:39:23.779Z,12.86
2018-05-15T05:41:52.230Z,13.06
2018-05-15T05:44:20.656Z,12.71
2018-05-15T05:46:49.893Z,12.88
2018-05-15T05:49:18.316Z,12.92
2018-05-15T05:51:46.784Z,12.89
2018-05-15T05:54:15.208Z,12.96
2018-05-15T05:56:44.414Z,12.98
2018-05-15T05:59:13.601Z,13.03
2018-05-15T06:01:42.038Z,13.14
2018-05-15T06:04:10.454Z,13.03
2018-05-15T06:06:38.925Z,12.91
2018-05-15T06:09:07.362Z,13.00
2018-05-15T06:11:36.562Z,12.99
2018-05-15T06:14:05.773Z,12.96
2018-05-15T06:16:34.979Z,12.96
2018-05-15T06:19:03.439Z,12.69
2018-05-15T06:21:32.643Z,12.71
2018-05-15T06:24:01.864Z,12.80
2018-05-15T06:26:30.297Z,12.77
2018-05-15T06:28:58.739Z,12.71
2018-05-15T06:31:27.160Z,12.79
2018-05-15T06:33:55.829Z,12.71
2018-05-15T06:36:24.245Z,12.66
2018-05-15T06:38:52.706Z,12.74
2018-05-15T06:41:21.137Z,12.82
2018-05-15T06:43:50.359Z,12.78
2018-05-15T06:46:19.543Z,12.74
2018-05-15T06:48:47.952Z,12.99
2018-05-15T06:51:16.415Z,12.95
2018-05-15T06:53:45.615Z,12.84
2018-05-15T06:56:14.067Z,12.81
2018-05-15T06:58:42.501Z,12.92
2018-05-15T07:01:10.965Z,13.01
2018-05-15T07:03:39.404Z,13.14
2018-05-15T07:06:07.868Z,13.04
2018-05-15T07:08:36.307Z,13.21
2018-05-15T07:11:04.754Z,13.29
2018-05-15T07:13:33.163Z,13.36
2018-05-15T07:16:01.614Z,13.39
2018-05-15T07:18:30.032Z,13.41
2018-05-15T07:20:58.477Z,13.55
2018-05-15T07:23:26.901Z,13.46
2018-05-15T07:25:55.332Z,13.36
2018-05-15T07:28:24.675Z,13.23
2018-05-15T07:30:53.109Z,13.36
2018-05-15T07:33:21.576Z,13.54
2018-05-15T07:35:49.990Z,13.39
2018-05-15T07:38:19.215Z,13.30
2018-05-15T07:40:47.627Z,13.32
2018-05-15T07:43:16.191Z,13.25
2018-05-15T07:45:44.666Z,13.37
2018-05-15T07:48:13.193Z,13.25
2018-05-15T07:50:41.567Z,13.57
2018-05-15T07:53:10.022Z,13.36
2018-05-15T07:55:38.461Z,13.40
2018-05-15T07:58:06.922Z,13.50
2018-05-15T08:00:35.360Z,13.35
2018-05-15T08:03:03.831Z,13.56
2018-05-15T08:05:33.016Z,13.56
2018-05-15T08:08:01.461Z,13.88
2018-05-15T08:10:29.913Z,14.05
2018-05-15T08:12:59.097Z,14.19
2018-05-15T08:15:28.316Z,14.23
2018-05-15T08:17:57.493Z,14.45
2018-05-15T08:20:25.968Z,14.48
2018-05-15T08:22:54.401Z,14.38
2018-05-15T08:25:22.845Z,14.46
2018-05-15T08:27:51.255Z,14.35
2018-05-15T08:30:20.464Z,14.53
2018-05-15T08:32:49.010Z,14.86
2018-05-15T08:35:17.463Z,14.84
2018-05-15T08:37:45.896Z,14.90
2018-05-15T08:40:15.112Z,14.73
2018-05-15T08:42:44.383Z,14.68
2018-05-15T08:45:12.842Z,14.80
2018-05-15T08:47:41.251Z,15.08
2018-05-15T08:50:09.776Z,15.18
2018-05-15T08:52:38.959Z,15.29
2018-05-15T08:55:08.175Z,15.32
2018-05-15T08:57:37.373Z,15.36
2018-05-15T09:00:06.618Z,15.35
2018-05-15T09:02:35.047Z,15.35
2018-05-15T09:05:03.500Z,15.42
2018-05-15T09:07:32.091Z,15.51
2018-05-15T09:10:00.548Z,15.68
2018-05-15T09:12:28.995Z,15.73
2018-05-15T09:14:58.214Z,15.93
2018-05-15T09:17:26.679Z,15.98
2018-05-15T09:19:55.903Z,15.97
2018-05-15T09:22:24.536Z,16.01
2018-05-15T09:24:53.112Z,16.06
2018-05-15T09:27:21.604Z,16.28
2018-05-15T09:29:50.077Z,16.59
2018-05-15T09:32:18.486Z,16.76
2018-05-15T09:34:46.914Z,16.74
2018-05-15T09:37:15.384Z,16.60
2018-05-15T09:39:44.574Z,16.25
2018-05-15T09:42:13.797Z,16.38
2018-05-15T09:44:42.984Z,16.53
2018-05-15T09:47:11.443Z,16.45
2018-05-15T09:49:39.866Z,16.16
2018-05-15T09:52:09.115Z,16.36
2018-05-15T09:54:37.545Z,16.74
2018-05-15T09:57:06.764Z,16.72
2018-05-15T09:59:35.941Z,16.78
2018-05-15T10:02:05.166Z,16.98
2018-05-15T10:04:33.585Z,17.09
2018-05-15T10:07:02.018Z,17.35
2018-05-15T10:09:31.211Z,17.30
2018-05-15T10:12:00.298Z,17.31
2018-05-15T10:14:28.721Z,17.37
2018-05-15T10:16:57.165Z,17.61
2018-05-15T10:19:25.584Z,17.75
2018-05-15T10:21:54.035Z,17.89
2018-05-15T10:24:22.429Z,18.05
2018-05-15T10:26:50.888Z,18.34
2018-05-15T10:29:19.307Z,18.42
2018-05-15T10:31:48.506Z,18.51
2018-05-15T10:34:16.916Z,18.65
2018-05-15T10:36:45.358Z,18.79
2018-05-15T10:39:13.768Z,18.90
2018-05-15T10:41:42.969Z,19.05
2018-05-15T10:44:12.160Z,19.08
2018-05-15T10:46:41.363Z,19.26
2018-05-15T10:49:10.626Z,19.28
2018-05-15T10:51:39.062Z,19.25
2018-05-15T10:54:08.243Z,19.10
2018-05-15T10:56:36.754Z,18.84
2018-05-15T10:59:05.162Z,18.82
2018-05-15T11:01:33.614Z,18.68
2018-05-15T11:04:02.848Z,18.12
2018-05-15T11:06:31.283Z,18.22
2018-05-15T11:08:59.721Z,18.43
2018-05-15T11:11:28.252Z,18.47
2018-05-15T11:13:56.662Z,18.54
2018-05-15T11:16:25.872Z,18.29
2018-05-15T11:18:55.043Z,18.38
2018-05-15T11:24:49.303Z,18.57
2018-05-15T11:27:17.754Z,18.55
2018-05-15T11:29:46.188Z,18.74
2018-05-15T11:32:15.431Z,19.08
2018-05-15T11:34:43.838Z,19.11
2018-05-15T11:37:12.258Z,19.05
2018-05-15T11:39:40.701Z,19.14
2018-05-15T11:42:09.126Z,19.17
2018-05-15T11:44:37.587Z,19.03
2018-05-15T11:47:06.005Z,18.89
2018-05-15T11:49:34.951Z,18.64
2018-05-15T11:52:03.803Z,18.77
2018-05-15T11:54:31.375Z,18.87
2018-05-15T11:57:00.611Z,18.97
2018-05-15T11:59:29.837Z,19.05
2018-05-15T12:01:58.268Z,19.25
2018-05-15T12:04:27.494Z,19.49
2018-05-15T12:06:55.938Z,19.61
2018-05-15T12:09:25.146Z,19.87
2018-05-15T12:11:54.318Z,19.88
2018-05-15T12:14:22.767Z,19.84
2018-05-15T12:16:51.941Z,19.57
2018-05-15T12:19:21.164Z,19.46
2018-05-15T12:21:49.588Z,19.48
2018-05-15T12:24:18.028Z,19.88
2018-05-15T12:26:46.447Z,19.97
2018-05-15T12:29:14.878Z,19.67
2018-05-15T12:31:44.060Z,19.28
2018-05-15T12:34:12.516Z,19.31
2018-05-15T12:36:40.928Z,19.31
2018-05-15T12:39:09.368Z,19.44
2018-05-15T12:41:37.917Z,19.55
2018-05-15T12:44:07.023Z,19.65
2018-05-15T12:46:36.219Z,19.68
2018-05-15T12:49:05.422Z,19.87
2018-05-15T12:51:34.588Z,19.88
2018-05-15T12:54:03.147Z,19.60
2018-05-15T12:56:31.521Z,19.57
2018-05-15T12:59:00.065Z,19.38
2018-05-15T13:01:29.288Z,19.09
2018-05-15T13:03:58.472Z,19.05
2018-05-15T13:06:26.932Z,18.81
2018-05-15T13:08:55.343Z,18.74
2018-05-15T13:11:23.788Z,18.59
2018-05-15T13:13:52.200Z,18.71
2018-05-15T13:16:20.630Z,19.05
2018-05-15T13:18:49.040Z,19.32
2018-05-15T13:21:17.487Z,19.42
2018-05-15T13:23:45.919Z,19.52
2018-05-15T13:26:14.352Z,19.20
2018-05-15T13:28:42.842Z,19.32
2018-05-15T13:31:11.354Z,19.46
2018-05-15T13:33:39.748Z,19.60
2018-05-15T13:36:08.186Z,19.63
2018-05-15T13:38:38.135Z,19.74
2018-05-15T13:41:06.610Z,19.84
2018-05-15T13:43:35.039Z,19.80
2018-05-15T13:46:03.521Z,19.93
2018-05-15T13:48:32.778Z,19.99
2018-05-15T13:51:01.393Z,20.13
2018-05-15T13:53:29.833Z,20.08
2018-05-15T13:55:59.036Z,19.93
2018-05-15T13:58:28.253Z,19.84
2018-05-15T14:00:56.662Z,19.85
2018-05-15T14:03:25.113Z,19.88
2018-05-15T14:05:54.211Z,19.93
2018-05-15T14:08:24.217Z,19.82
2018-05-15T14:10:53.512Z,19.93
2018-05-15T14:13:26.904Z,19.91
2018-05-15T14:15:56.527Z,19.79
2018-05-15T14:18:26.755Z,19.54
2018-05-15T14:20:57.057Z,19.26
2018-05-15T14:23:30.981Z,18.97
2018-05-15T14:26:02.245Z,18.97
2018-05-15T14:28:31.833Z,18.69
2018-05-15T14:31:02.154Z,18.60
2018-05-15T14:33:30.611Z,18.61
2018-05-15T14:35:59.023Z,18.69
2018-05-15T14:38:27.488Z,18.79
2018-05-15T14:40:55.888Z,18.78
2018-05-15T14:43:26.136Z,18.63
2018-05-15T14:45:55.325Z,18.65
2018-05-15T14:48:23.763Z,18.85
2018-05-15T14:54:13.608Z,18.85
2018-05-15T14:56:43.113Z,18.83
2018-05-15T14:59:13.230Z,18.95
2018-05-15T15:01:41.635Z,19.10
2018-05-15T15:04:10.092Z,19.21
2018-05-15T15:06:38.526Z,19.12
2018-05-15T15:09:07.703Z,19.23
2018-05-15T15:11:36.901Z,19.26
2018-05-15T15:14:06.250Z,19.21
2018-05-15T15:16:34.685Z,19.30
2018-05-15T15:19:03.874Z,19.29
2018-05-15T15:21:32.319Z,19.35
2018-05-15T15:24:00.738Z,19.43
2018-05-15T15:26:29.206Z,19.50
2018-05-15T15:28:57.661Z,19.51
2018-05-15T15:31:26.107Z,19.30
2018-05-15T15:33:55.330Z,19.36
2018-05-15T15:36:23.801Z,19.14
2018-05-15T15:38:52.995Z,19.04
2018-05-15T15:41:22.202Z,18.78
2018-05-15T15:43:51.388Z,18.56
2018-05-15T15:46:20.665Z,18.57
2018-05-15T15:48:49.093Z,18.41
2018-05-15T15:51:18.305Z,18.30
2018-05-15T15:53:46.735Z,18.34
2018-05-15T15:56:15.178Z,18.38
2018-05-15T15:58:43.600Z,18.38
2018-05-15T16:01:12.068Z,18.31
2018-05-15T16:03:40.549Z,18.24
2018-05-15T16:06:09.002Z,18.01
2018-05-15T16:08:38.184Z,18.11
2018-05-15T16:11:06.624Z,18.13
2018-05-15T16:13:35.054Z,18.14
2018-05-15T16:16:03.529Z,18.01
2018-05-15T16:18:31.952Z,18.03
2018-05-15T16:21:00.418Z,18.12
2018-05-15T16:23:29.616Z,18.30
2018-05-15T16:25:58.064Z,18.43
2018-05-15T16:28:26.497Z,18.42
2018-05-15T16:30:55.803Z,18.52
2018-05-15T16:33:24.173Z,18.63
2018-05-15T16:35:53.853Z,18.73
2018-05-15T16:38:22.271Z,18.59
2018-05-15T16:40:51.496Z,18.47
2018-05-15T16:43:19.980Z,18.41
2018-05-15T16:45:48.487Z,18.40
2018-05-15T16:48:16.907Z,18.31
2018-05-15T16:50:45.385Z,18.30
2018-05-15T16:53:13.955Z,18.17
2018-05-15T16:55:42.364Z,18.21
2018-05-15T16:58:10.824Z,18.05
2018-05-15T17:00:39.289Z,17.99
2018-05-15T17:03:07.815Z,17.90
2018-05-15T17:05:36.222Z,17.94
2018-05-15T17:08:04.714Z,17.78
2018-05-15T17:10:33.117Z,17.74
2018-05-15T17:13:01.621Z,17.67
2018-05-15T17:15:30.146Z,17.55
2018-05-15T17:17:58.607Z,17.54
2018-05-15T17:20:28.085Z,17.49
2018-05-15T17:22:57.054Z,17.36
2018-05-15T17:25:26.252Z,17.13
2018-05-15T17:27:56.384Z,17.07
2018-05-15T17:30:26.480Z,16.95
2018-05-15T17:32:54.939Z,16.86
2018-05-15T17:35:23.410Z,16.76
2018-05-15T17:37:51.864Z,16.65
2018-05-15T17:40:21.108Z,16.38
2018-05-15T17:42:49.573Z,16.18
2018-05-15T17:45:18.436Z,15.70
2018-05-15T17:47:46.861Z,15.38
2018-05-15T17:50:16.046Z,15.28
2018-05-15T17:52:44.521Z,15.04
2018-05-15T17:55:13.047Z,14.80
2018-05-15T17:57:41.482Z,14.70
2018-05-15T18:00:10.727Z,14.58
2018-05-15T18:02:39.327Z,14.53
2018-05-15T18:05:07.836Z,14.51
2018-05-15T18:07:36.642Z,14.35
2018-05-15T18:10:06.052Z,14.36
2018-05-15T18:12:38.271Z,14.36
2018-05-15T18:15:06.798Z,14.33
2018-05-15T18:17:35.276Z,14.30
2018-05-15T18:20:03.761Z,14.22
2018-05-15T18:22:32.268Z,14.13
2018-05-15T18:25:01.491Z,14.01
2018-05-15T18:27:30.112Z,14.00
2018-05-15T18:29:59.304Z,13.94
2018-05-15T18:32:27.772Z,13.81
2018-05-15T18:34:56.212Z,13.80
2018-05-15T18:37:24.742Z,13.75
2018-05-15T18:39:53.210Z,13.63
2018-05-15T18:42:22.541Z,13.59
2018-05-15T18:44:51.011Z,13.56
2018-05-15T18:47:19.574Z,13.52
2018-05-15T18:49:48.004Z,13.44
2018-05-15T18:52:16.479Z,13.47
2018-05-15T18:54:44.892Z,13.48
2018-05-15T18:57:13.349Z,13.42
2018-05-15T18:59:41.760Z,13.40
2018-05-15T19:02:10.290Z,13.30
2018-05-15T19:04:38.732Z,13.14
2018-05-15T19:07:07.185Z,13.13
2018-05-15T19:09:35.606Z,13.21
2018-05-15T19:12:04.335Z,13.17
2018-05-15T19:14:33.532Z,13.14
2018-05-15T19:17:02.757Z,13.11
2018-05-15T19:19:31.352Z,13.10
2018-05-15T19:21:59.670Z,13.10
2018-05-15T19:24:28.109Z,13.04
2018-05-15T19:26:57.466Z,13.00
2018-05-15T19:29:25.833Z,12.99
2018-05-15T19:31:54.331Z,12.95
2018-05-15T19:34:26.350Z,12.94
2018-05-15T19:36:58.698Z,12.85
2018-05-15T19:39:32.661Z,12.80
2018-05-15T19:42:02.439Z,12.82
2018-05-15T19:44:30.868Z,12.87
2018-05-15T19:47:00.040Z,12.88
2018-05-15T19:49:28.556Z,12.87
2018-05-15T19:51:57.059Z,12.82
2018-05-15T19:54:25.501Z,12.78
2018-05-15T19:56:54.009Z,12.79
2018-05-15T19:59:23.323Z,12.73
2018-05-15T20:01:51.791Z,12.73
2018-05-15T20:04:20.261Z,12.69
2018-05-15T20:06:48.680Z,12.72
2018-05-15T20:09:17.123Z,12.72
2018-05-15T20:11:45.633Z,12.69
2018-05-15T20:14:14.094Z,12.70
2018-05-15T20:16:42.535Z,12.64
2018-05-15T20:19:11.004Z,12.60
2018-05-15T20:21:39.434Z,12.51
2018-05-15T20:24:11.562Z,12.54
2018-05-15T20:26:39.991Z,12.59
2018-05-15T20:29:09.303Z,12.52
2018-05-15T20:31:38.286Z,12.50
2018-05-15T20:34:07.491Z,12.46
2018-05-15T20:36:35.965Z,12.44
2018-05-15T20:39:04.413Z,12.46
2018-05-15T20:41:32.910Z,12.46
2018-05-15T20:44:01.350Z,12.45
2018-05-15T20:46:29.796Z,12.45
2018-05-15T20:48:58.216Z,12.36
2018-05-15T20:51:26.726Z,12.44
2018-05-15T20:53:55.179Z,12.45
2018-05-15T20:56:24.399Z,12.45
2018-05-15T20:58:52.829Z,12.39
2018-05-15T21:01:21.467Z,12.36
2018-05-15T21:03:49.909Z,12.36
2018-05-15T21:06:18.378Z,12.31
2018-05-15T21:08:46.811Z,12.28
2018-05-15T21:11:16.036Z,12.27
2018-05-15T21:13:44.470Z,12.29
2018-05-15T21:16:12.937Z,12.31
2018-05-15T21:18:41.372Z,12.27
2018-05-15T21:21:09.824Z,12.22
2018-05-15T21:23:38.247Z,12.17
2018-05-15T21:26:06.679Z,12.23
2018-05-15T21:28:35.140Z,12.30
2018-05-15T21:31:03.678Z,12.29
2018-05-15T21:33:32.895Z,12.29
2018-05-15T21:36:01.299Z,12.27
2018-05-15T21:38:29.767Z,12.24
2018-05-15T21:40:58.201Z,12.31
2018-05-15T21:43:26.659Z,12.31
2018-05-15T21:45:55.077Z,12.28
2018-05-15T21:48:23.531Z,12.22
2018-05-15T21:50:51.950Z,12.20
2018-05-15T21:53:20.404Z,12.17
2018-05-15T21:55:48.823Z,12.19
2018-05-15T21:58:17.251Z,12.16
2018-05-15T22:00:45.702Z,12.12
2018-05-15T22:03:14.888Z,12.11
2018-05-15T22:05:43.432Z,12.10
2018-05-15T22:08:12.008Z,12.08
2018-05-15T22:10:40.463Z,12.05
2018-05-15T22:13:27.217Z,12.03
2018-05-15T22:16:13.296Z,11.97
2018-05-15T22:18:59.572Z,11.92
2018-05-15T22:21:45.889Z,11.89
2018-05-15T22:24:29.196Z,11.78
2018-05-15T22:26:57.669Z,11.72
2018-05-15T22:29:26.086Z,11.72
2018-05-15T22:31:54.534Z,11.68
2018-05-15T22:34:23.733Z,11.66
2018-05-15T22:36:52.188Z,11.60
2018-05-15T22:39:20.626Z,11.60
2018-05-15T22:41:49.076Z,11.57
2018-05-15T22:44:18.283Z,11.60
2018-05-15T22:46:47.500Z,11.55
2018-05-15T22:49:15.929Z,11.67
2018-05-15T22:51:44.397Z,11.65
2018-05-15T22:54:12.840Z,11.74
2018-05-15T22:56:42.024Z,11.61
2018-05-15T22:59:10.481Z,11.53
2018-05-15T23:01:38.908Z,11.54
2018-05-15T23:04:08.113Z,11.53
2018-05-15T23:06:37.305Z,11.65
2018-05-15T23:09:06.524Z,11.70
2018-05-15T23:11:34.945Z,11.70
2018-05-15T23:14:03.387Z,11.70
2018-05-15T23:16:32.681Z,11.62
2018-05-15T23:19:01.904Z,11.69
2018-05-15T23:21:30.324Z,11.69
2018-05-15T23:23:58.775Z,11.76
2018-05-15T23:26:27.250Z,11.77
2018-05-15T23:28:55.711Z,11.76
2018-05-15T23:31:24.213Z,11.75
2018-05-15T23:33:52.680Z,11.68
2018-05-15T23:36:21.100Z,11.70
2018-05-15T23:38:49.610Z,11.69
2018-05-15T23:41:18.065Z,11.59
2018-05-15T23:43:46.520Z,11.51
2018-05-15T23:46:15.053Z,11.48
2018-05-15T23:48:43.483Z,11.49
2018-05-15T23:51:12.008Z,11.46
2018-05-15T23:53:43.074Z,11.61
2018-05-15T23:56:11.542Z,11.59
2018-05-15T23:58:39.952Z,11.56
